sensor_id;sensor_type;location;lat;lon;timestamp;temperature;humidity
12887;DHT22;6511;49.746;6.094;2022-07-29T00:02:12;18.30;99.90
12887;DHT22;6511;49.746;6.094;2022-07-29T00:04:37;18.20;99.90
12887;DHT22;6511;49.746;6.094;2022-07-29T00:07:03;18.10;99.90
12887;DHT22;6511;49.746;6.094;2022-07-29T00:09:29;18.00;99.90
12887;DHT22;6511;49.746;6.094;2022-07-29T00:11:55;17.90;99.90
12887;DHT22;6511;49.746;6.094;2022-07-29T00:14:22;17.90;99.90
12887;DHT22;6511;49.746;6.094;2022-07-29T00:16:47;18.00;99.90
12887;DHT22;6511;49.746;6.094;2022-07-29T00:19:13;17.80;99.90
12887;DHT22;6511;49.746;6.094;2022-07-29T00:21:38;17.70;99.90
12887;DHT22;6511;49.746;6.094;2022-07-29T00:24:04;17.60;99.90
12887;DHT22;6511;49.746;6.094;2022-07-29T00:26:29;17.60;99.90
12887;DHT22;6511;49.746;6.094;2022-07-29T00:29:00;17.60;99.90
12887;DHT22;6511;49.746;6.094;2022-07-29T00:31:26;17.60;99.90
12887;DHT22;6511;49.746;6.094;2022-07-29T00:33:52;17.60;99.90
12887;DHT22;6511;49.746;6.094;2022-07-29T00:36:17;17.50;99.90
12887;DHT22;6511;49.746;6.094;2022-07-29T00:38:43;17.50;99.90
12887;DHT22;6511;49.746;6.094;2022-07-29T00:41:11;17.60;99.90
12887;DHT22;6511;49.746;6.094;2022-07-29T00:43:36;17.60;99.90
12887;DHT22;6511;49.746;6.094;2022-07-29T00:46:02;17.60;99.90
12887;DHT22;6511;49.746;6.094;2022-07-29T00:48:27;17.40;99.90
12887;DHT22;6511;49.746;6.094;2022-07-29T00:50:53;17.30;99.90
12887;DHT22;6511;49.746;6.094;2022-07-29T00:53:19;17.20;99.90
12887;DHT22;6511;49.746;6.094;2022-07-29T00:55:45;17.10;99.90
12887;DHT22;6511;49.746;6.094;2022-07-29T00:58:11;17.00;99.90
12887;DHT22;6511;49.746;6.094;2022-07-29T01:00:37;17.00;99.90
12887;DHT22;6511;49.746;6.094;2022-07-29T01:03:02;16.90;99.90
12887;DHT22;6511;49.746;6.094;2022-07-29T01:05:28;16.80;99.90
12887;DHT22;6511;49.746;6.094;2022-07-29T01:07:54;16.80;99.90
12887;DHT22;6511;49.746;6.094;2022-07-29T01:10:20;16.80;99.90
12887;DHT22;6511;49.746;6.094;2022-07-29T01:12:49;16.80;99.90
12887;DHT22;6511;49.746;6.094;2022-07-29T01:15:15;16.70;99.90
12887;DHT22;6511;49.746;6.094;2022-07-29T01:17:43;16.50;99.90
12887;DHT22;6511;49.746;6.094;2022-07-29T01:20:14;16.60;99.90
12887;DHT22;6511;49.746;6.094;2022-07-29T01:28:34;16.40;99.90
12887;DHT22;6511;49.746;6.094;2022-07-29T01:30:30;16.30;99.90
12887;DHT22;6511;49.746;6.094;2022-07-29T01:33:02;16.20;99.90
12887;DHT22;6511;49.746;6.094;2022-07-29T01:35:29;16.10;99.90
12887;DHT22;6511;49.746;6.094;2022-07-29T01:37:58;16.00;99.90
12887;DHT22;6511;49.746;6.094;2022-07-29T01:40:34;15.90;99.90
12887;DHT22;6511;49.746;6.094;2022-07-29T01:43:03;15.80;99.90
12887;DHT22;6511;49.746;6.094;2022-07-29T01:45:38;15.80;99.90
12887;DHT22;6511;49.746;6.094;2022-07-29T01:48:13;15.70;99.90
12887;DHT22;6511;49.746;6.094;2022-07-29T01:50:44;15.70;99.90
12887;DHT22;6511;49.746;6.094;2022-07-29T01:53:11;15.60;99.90
12887;DHT22;6511;49.746;6.094;2022-07-29T01:55:39;15.40;99.90
12887;DHT22;6511;49.746;6.094;2022-07-29T01:58:05;15.40;99.90
12887;DHT22;6511;49.746;6.094;2022-07-29T02:00:32;15.30;99.90
12887;DHT22;6511;49.746;6.094;2022-07-29T02:02:58;15.40;99.90
12887;DHT22;6511;49.746;6.094;2022-07-29T02:05:24;15.40;99.90
12887;DHT22;6511;49.746;6.094;2022-07-29T02:07:51;15.30;99.90
12887;DHT22;6511;49.746;6.094;2022-07-29T02:10:18;15.30;99.90
12887;DHT22;6511;49.746;6.094;2022-07-29T02:12:46;15.20;99.90
12887;DHT22;6511;49.746;6.094;2022-07-29T02:15:13;15.20;99.90
12887;DHT22;6511;49.746;6.094;2022-07-29T02:18:00;15.20;99.90
12887;DHT22;6511;49.746;6.094;2022-07-29T02:20:26;15.20;99.90
12887;DHT22;6511;49.746;6.094;2022-07-29T02:22:52;15.20;99.90
12887;DHT22;6511;49.746;6.094;2022-07-29T02:25:20;15.20;99.90
12887;DHT22;6511;49.746;6.094;2022-07-29T02:27:46;15.20;99.90
12887;DHT22;6511;49.746;6.094;2022-07-29T02:30:12;15.10;99.90
12887;DHT22;6511;49.746;6.094;2022-07-29T02:32:38;15.00;99.90
12887;DHT22;6511;49.746;6.094;2022-07-29T02:35:04;14.90;99.90
12887;DHT22;6511;49.746;6.094;2022-07-29T02:37:31;14.90;99.90
12887;DHT22;6511;49.746;6.094;2022-07-29T02:39:57;14.90;99.90
12887;DHT22;6511;49.746;6.094;2022-07-29T02:42:23;15.00;99.90
12887;DHT22;6511;49.746;6.094;2022-07-29T02:44:49;15.00;99.90
12887;DHT22;6511;49.746;6.094;2022-07-29T02:47:30;14.90;99.90
12887;DHT22;6511;49.746;6.094;2022-07-29T02:50:02;14.90;99.90
12887;DHT22;6511;49.746;6.094;2022-07-29T02:52:45;15.00;99.90
12887;DHT22;6511;49.746;6.094;2022-07-29T02:55:21;15.10;99.90
12887;DHT22;6511;49.746;6.094;2022-07-29T02:57:54;15.20;99.90
12887;DHT22;6511;49.746;6.094;2022-07-29T03:00:30;15.30;99.90
12887;DHT22;6511;49.746;6.094;2022-07-29T03:02:57;15.10;99.90
12887;DHT22;6511;49.746;6.094;2022-07-29T03:05:23;15.00;99.90
12887;DHT22;6511;49.746;6.094;2022-07-29T03:07:51;15.00;99.90
12887;DHT22;6511;49.746;6.094;2022-07-29T03:10:18;14.90;99.90
12887;DHT22;6511;49.746;6.094;2022-07-29T03:12:43;14.80;99.90
12887;DHT22;6511;49.746;6.094;2022-07-29T03:15:09;14.60;99.90
12887;DHT22;6511;49.746;6.094;2022-07-29T03:17:35;14.70;99.90
12887;DHT22;6511;49.746;6.094;2022-07-29T03:20:01;14.60;99.90
12887;DHT22;6511;49.746;6.094;2022-07-29T03:22:27;14.60;99.90
12887;DHT22;6511;49.746;6.094;2022-07-29T03:24:53;14.60;99.90
12887;DHT22;6511;49.746;6.094;2022-07-29T03:27:18;14.60;99.90
12887;DHT22;6511;49.746;6.094;2022-07-29T03:29:44;14.70;99.90
12887;DHT22;6511;49.746;6.094;2022-07-29T03:32:09;14.70;99.90
12887;DHT22;6511;49.746;6.094;2022-07-29T03:34:35;14.70;99.90
12887;DHT22;6511;49.746;6.094;2022-07-29T03:37:01;14.70;99.90
12887;DHT22;6511;49.746;6.094;2022-07-29T03:39:27;14.70;99.90
12887;DHT22;6511;49.746;6.094;2022-07-29T03:41:55;14.60;99.90
12887;DHT22;6511;49.746;6.094;2022-07-29T03:44:21;14.60;99.90
12887;DHT22;6511;49.746;6.094;2022-07-29T03:46:47;14.50;99.90
12887;DHT22;6511;49.746;6.094;2022-07-29T03:49:14;14.50;99.90
12887;DHT22;6511;49.746;6.094;2022-07-29T03:51:40;14.50;99.90
12887;DHT22;6511;49.746;6.094;2022-07-29T03:54:05;14.50;99.90
12887;DHT22;6511;49.746;6.094;2022-07-29T03:56:32;14.50;99.90
12887;DHT22;6511;49.746;6.094;2022-07-29T03:58:58;14.40;99.90
12887;DHT22;6511;49.746;6.094;2022-07-29T04:01:24;14.40;99.90
12887;DHT22;6511;49.746;6.094;2022-07-29T04:03:49;14.50;99.90
12887;DHT22;6511;49.746;6.094;2022-07-29T04:06:16;14.50;99.90
12887;DHT22;6511;49.746;6.094;2022-07-29T04:08:41;14.40;99.90
12887;DHT22;6511;49.746;6.094;2022-07-29T04:11:07;14.50;99.90
12887;DHT22;6511;49.746;6.094;2022-07-29T04:13:32;14.30;99.90
12887;DHT22;6511;49.746;6.094;2022-07-29T04:15:58;14.20;99.90
12887;DHT22;6511;49.746;6.094;2022-07-29T04:18:24;14.20;99.90
12887;DHT22;6511;49.746;6.094;2022-07-29T04:20:50;14.20;99.90
12887;DHT22;6511;49.746;6.094;2022-07-29T04:23:15;14.20;99.90
12887;DHT22;6511;49.746;6.094;2022-07-29T04:25:41;14.10;99.90
12887;DHT22;6511;49.746;6.094;2022-07-29T04:28:07;14.10;99.90
12887;DHT22;6511;49.746;6.094;2022-07-29T04:30:33;14.20;99.90
12887;DHT22;6511;49.746;6.094;2022-07-29T04:32:59;14.10;99.90
12887;DHT22;6511;49.746;6.094;2022-07-29T04:35:26;14.20;99.90
12887;DHT22;6511;49.746;6.094;2022-07-29T04:37:51;14.20;99.90
12887;DHT22;6511;49.746;6.094;2022-07-29T04:40:17;14.10;99.90
12887;DHT22;6511;49.746;6.094;2022-07-29T04:42:43;13.90;99.90
12887;DHT22;6511;49.746;6.094;2022-07-29T04:45:08;13.90;99.90
12887;DHT22;6511;49.746;6.094;2022-07-29T04:47:34;13.90;99.90
12887;DHT22;6511;49.746;6.094;2022-07-29T04:49:59;13.90;99.90
12887;DHT22;6511;49.746;6.094;2022-07-29T04:52:25;13.80;99.90
12887;DHT22;6511;49.746;6.094;2022-07-29T04:54:51;13.80;99.90
12887;DHT22;6511;49.746;6.094;2022-07-29T04:57:16;13.90;99.90
12887;DHT22;6511;49.746;6.094;2022-07-29T04:59:42;13.90;99.90
12887;DHT22;6511;49.746;6.094;2022-07-29T05:02:07;13.90;99.90
12887;DHT22;6511;49.746;6.094;2022-07-29T05:04:33;14.00;99.90
12887;DHT22;6511;49.746;6.094;2022-07-29T05:06:58;14.10;99.90
12887;DHT22;6511;49.746;6.094;2022-07-29T05:09:24;14.10;99.90
12887;DHT22;6511;49.746;6.094;2022-07-29T05:11:49;14.20;99.90
12887;DHT22;6511;49.746;6.094;2022-07-29T05:14:15;14.30;99.90
12887;DHT22;6511;49.746;6.094;2022-07-29T05:16:40;14.30;99.90
12887;DHT22;6511;49.746;6.094;2022-07-29T05:19:07;14.30;99.90
12887;DHT22;6511;49.746;6.094;2022-07-29T05:21:32;14.30;99.90
12887;DHT22;6511;49.746;6.094;2022-07-29T05:23:58;14.40;99.90
12887;DHT22;6511;49.746;6.094;2022-07-29T05:26:23;14.50;99.90
12887;DHT22;6511;49.746;6.094;2022-07-29T05:28:49;14.50;99.90
12887;DHT22;6511;49.746;6.094;2022-07-29T05:31:18;14.60;99.90
12887;DHT22;6511;49.746;6.094;2022-07-29T05:33:43;14.70;99.90
12887;DHT22;6511;49.746;6.094;2022-07-29T05:36:09;14.80;99.90
12887;DHT22;6511;49.746;6.094;2022-07-29T05:38:34;14.90;99.90
12887;DHT22;6511;49.746;6.094;2022-07-29T05:41:00;15.00;99.90
12887;DHT22;6511;49.746;6.094;2022-07-29T05:43:26;15.10;99.90
12887;DHT22;6511;49.746;6.094;2022-07-29T05:45:52;15.20;99.90
12887;DHT22;6511;49.746;6.094;2022-07-29T05:48:17;15.30;99.90
12887;DHT22;6511;49.746;6.094;2022-07-29T05:50:43;15.50;99.90
12887;DHT22;6511;49.746;6.094;2022-07-29T05:53:08;15.60;99.90
12887;DHT22;6511;49.746;6.094;2022-07-29T05:55:34;15.70;99.90
12887;DHT22;6511;49.746;6.094;2022-07-29T05:57:59;15.80;99.90
12887;DHT22;6511;49.746;6.094;2022-07-29T06:00:28;15.90;99.90
12887;DHT22;6511;49.746;6.094;2022-07-29T06:02:54;15.90;99.90
12887;DHT22;6511;49.746;6.094;2022-07-29T06:05:19;16.00;99.90
12887;DHT22;6511;49.746;6.094;2022-07-29T06:07:45;16.10;99.90
12887;DHT22;6511;49.746;6.094;2022-07-29T06:10:11;16.20;99.90
12887;DHT22;6511;49.746;6.094;2022-07-29T06:12:40;16.30;99.90
12887;DHT22;6511;49.746;6.094;2022-07-29T06:15:06;16.30;99.90
12887;DHT22;6511;49.746;6.094;2022-07-29T06:17:32;16.30;99.90
12887;DHT22;6511;49.746;6.094;2022-07-29T06:19:57;16.30;99.90
12887;DHT22;6511;49.746;6.094;2022-07-29T06:22:23;16.50;99.90
12887;DHT22;6511;49.746;6.094;2022-07-29T06:24:49;16.50;99.90
12887;DHT22;6511;49.746;6.094;2022-07-29T06:27:15;16.60;99.90
12887;DHT22;6511;49.746;6.094;2022-07-29T06:29:44;16.70;99.90
12887;DHT22;6511;49.746;6.094;2022-07-29T06:32:10;16.80;99.90
12887;DHT22;6511;49.746;6.094;2022-07-29T06:34:35;16.90;99.90
12887;DHT22;6511;49.746;6.094;2022-07-29T06:37:08;17.00;99.90
12887;DHT22;6511;49.746;6.094;2022-07-29T06:39:34;17.10;99.90
12887;DHT22;6511;49.746;6.094;2022-07-29T06:42:00;17.20;99.90
12887;DHT22;6511;49.746;6.094;2022-07-29T06:44:26;17.30;99.90
12887;DHT22;6511;49.746;6.094;2022-07-29T06:46:51;17.40;99.90
12887;DHT22;6511;49.746;6.094;2022-07-29T06:49:18;17.40;99.90
12887;DHT22;6511;49.746;6.094;2022-07-29T06:51:43;17.40;99.90
12887;DHT22;6511;49.746;6.094;2022-07-29T06:54:09;17.50;99.90
12887;DHT22;6511;49.746;6.094;2022-07-29T06:56:35;17.70;99.90
12887;DHT22;6511;49.746;6.094;2022-07-29T06:59:03;17.90;99.90
12887;DHT22;6511;49.746;6.094;2022-07-29T07:01:29;17.90;99.90
12887;DHT22;6511;49.746;6.094;2022-07-29T07:03:54;18.00;99.90
12887;DHT22;6511;49.746;6.094;2022-07-29T07:06:20;18.10;99.90
12887;DHT22;6511;49.746;6.094;2022-07-29T07:08:46;18.20;99.90
12887;DHT22;6511;49.746;6.094;2022-07-29T07:11:11;18.30;99.90
12887;DHT22;6511;49.746;6.094;2022-07-29T07:13:37;18.50;99.90
12887;DHT22;6511;49.746;6.094;2022-07-29T07:16:03;18.60;99.90
12887;DHT22;6511;49.746;6.094;2022-07-29T07:18:29;18.70;99.90
12887;DHT22;6511;49.746;6.094;2022-07-29T07:20:55;19.00;99.90
12887;DHT22;6511;49.746;6.094;2022-07-29T07:23:21;19.20;99.90
12887;DHT22;6511;49.746;6.094;2022-07-29T07:25:46;19.30;99.90
12887;DHT22;6511;49.746;6.094;2022-07-29T07:28:12;19.60;99.90
12887;DHT22;6511;49.746;6.094;2022-07-29T07:30:37;19.50;99.90
12887;DHT22;6511;49.746;6.094;2022-07-29T07:33:03;19.50;99.90
12887;DHT22;6511;49.746;6.094;2022-07-29T07:35:28;19.50;99.90
12887;DHT22;6511;49.746;6.094;2022-07-29T07:37:54;19.60;99.90
12887;DHT22;6511;49.746;6.094;2022-07-29T07:40:20;19.60;99.90
12887;DHT22;6511;49.746;6.094;2022-07-29T07:42:45;19.70;99.90
12887;DHT22;6511;49.746;6.094;2022-07-29T07:45:11;19.70;99.90
12887;DHT22;6511;49.746;6.094;2022-07-29T07:47:37;20.10;99.90
12887;DHT22;6511;49.746;6.094;2022-07-29T07:50:05;20.20;99.90
12887;DHT22;6511;49.746;6.094;2022-07-29T07:52:31;20.20;99.90
12887;DHT22;6511;49.746;6.094;2022-07-29T07:54:57;20.20;99.90
12887;DHT22;6511;49.746;6.094;2022-07-29T07:57:22;20.30;99.90
12887;DHT22;6511;49.746;6.094;2022-07-29T07:59:48;20.30;99.90
12887;DHT22;6511;49.746;6.094;2022-07-29T08:02:14;20.40;99.90
12887;DHT22;6511;49.746;6.094;2022-07-29T08:04:39;20.40;99.90
12887;DHT22;6511;49.746;6.094;2022-07-29T08:07:05;20.70;99.90
12887;DHT22;6511;49.746;6.094;2022-07-29T08:09:31;20.50;99.90
12887;DHT22;6511;49.746;6.094;2022-07-29T08:11:58;20.60;99.90
12887;DHT22;6511;49.746;6.094;2022-07-29T08:14:24;20.60;99.90
12887;DHT22;6511;49.746;6.094;2022-07-29T08:16:50;20.60;99.90
12887;DHT22;6511;49.746;6.094;2022-07-29T08:19:16;20.70;99.90
12887;DHT22;6511;49.746;6.094;2022-07-29T08:21:42;20.60;99.90
12887;DHT22;6511;49.746;6.094;2022-07-29T08:24:07;20.70;99.90
12887;DHT22;6511;49.746;6.094;2022-07-29T08:26:51;20.70;99.90
12887;DHT22;6511;49.746;6.094;2022-07-29T08:29:17;20.80;99.90
12887;DHT22;6511;49.746;6.094;2022-07-29T08:31:42;20.90;99.90
12887;DHT22;6511;49.746;6.094;2022-07-29T08:34:08;21.10;99.90
12887;DHT22;6511;49.746;6.094;2022-07-29T08:36:34;21.20;99.90
12887;DHT22;6511;49.746;6.094;2022-07-29T08:39:00;21.30;99.90
12887;DHT22;6511;49.746;6.094;2022-07-29T08:41:25;21.20;99.90
12887;DHT22;6511;49.746;6.094;2022-07-29T08:43:52;21.10;99.90
12887;DHT22;6511;49.746;6.094;2022-07-29T08:46:18;21.20;99.90
12887;DHT22;6511;49.746;6.094;2022-07-29T08:48:43;21.30;99.90
12887;DHT22;6511;49.746;6.094;2022-07-29T08:51:12;21.40;99.90
12887;DHT22;6511;49.746;6.094;2022-07-29T08:53:40;21.50;99.90
12887;DHT22;6511;49.746;6.094;2022-07-29T08:56:06;21.60;99.90
12887;DHT22;6511;49.746;6.094;2022-07-29T08:58:32;21.80;99.90
12887;DHT22;6511;49.746;6.094;2022-07-29T09:00:58;21.90;99.90
12887;DHT22;6511;49.746;6.094;2022-07-29T09:03:31;22.00;99.90
12887;DHT22;6511;49.746;6.094;2022-07-29T09:06:00;22.10;99.90
12887;DHT22;6511;49.746;6.094;2022-07-29T09:08:26;22.20;99.90
12887;DHT22;6511;49.746;6.094;2022-07-29T09:10:52;22.30;99.90
12887;DHT22;6511;49.746;6.094;2022-07-29T09:13:18;22.60;99.90
12887;DHT22;6511;49.746;6.094;2022-07-29T09:15:44;22.70;99.90
12887;DHT22;6511;49.746;6.094;2022-07-29T09:18:09;22.90;99.90
12887;DHT22;6511;49.746;6.094;2022-07-29T09:20:35;23.00;99.90
12887;DHT22;6511;49.746;6.094;2022-07-29T09:23:19;23.00;99.90
12887;DHT22;6511;49.746;6.094;2022-07-29T09:25:45;23.10;99.90
12887;DHT22;6511;49.746;6.094;2022-07-29T09:28:14;23.00;99.90
12887;DHT22;6511;49.746;6.094;2022-07-29T09:30:58;23.00;99.90
12887;DHT22;6511;49.746;6.094;2022-07-29T09:33:30;23.10;99.90
12887;DHT22;6511;49.746;6.094;2022-07-29T09:36:00;23.30;99.90
12887;DHT22;6511;49.746;6.094;2022-07-29T09:38:27;23.30;99.90
12887;DHT22;6511;49.746;6.094;2022-07-29T09:40:57;23.30;99.90
12887;DHT22;6511;49.746;6.094;2022-07-29T09:43:22;23.50;99.90
12887;DHT22;6511;49.746;6.094;2022-07-29T09:45:48;23.40;99.90
12887;DHT22;6511;49.746;6.094;2022-07-29T09:48:17;23.50;99.90
12887;DHT22;6511;49.746;6.094;2022-07-29T09:50:44;23.40;99.90
12887;DHT22;6511;49.746;6.094;2022-07-29T09:53:10;23.40;99.90
12887;DHT22;6511;49.746;6.094;2022-07-29T09:58:17;23.50;99.90
12887;DHT22;6511;49.746;6.094;2022-07-29T10:00:43;23.60;99.90
12887;DHT22;6511;49.746;6.094;2022-07-29T10:03:09;23.80;99.90
12887;DHT22;6511;49.746;6.094;2022-07-29T10:05:34;23.90;99.90
12887;DHT22;6511;49.746;6.094;2022-07-29T10:08:00;24.10;99.90
12887;DHT22;6511;49.746;6.094;2022-07-29T10:10:28;23.80;99.90
12887;DHT22;6511;49.746;6.094;2022-07-29T10:15:21;24.20;99.90
12887;DHT22;6511;49.746;6.094;2022-07-29T10:17:46;24.10;99.90
12887;DHT22;6511;49.746;6.094;2022-07-29T10:20:13;24.30;99.90
12887;DHT22;6511;49.746;6.094;2022-07-29T10:22:39;24.20;99.90
12887;DHT22;6511;49.746;6.094;2022-07-29T10:25:05;24.30;99.90
12887;DHT22;6511;49.746;6.094;2022-07-29T10:27:30;24.10;99.90
12887;DHT22;6511;49.746;6.094;2022-07-29T10:29:56;24.30;99.90
12887;DHT22;6511;49.746;6.094;2022-07-29T10:34:57;24.80;99.90
12887;DHT22;6511;49.746;6.094;2022-07-29T10:45:46;25.60;99.90
12887;DHT22;6511;49.746;6.094;2022-07-29T10:48:13;25.60;99.90
12887;DHT22;6511;49.746;6.094;2022-07-29T10:53:24;25.80;99.90
12887;DHT22;6511;49.746;6.094;2022-07-29T10:55:50;25.70;99.90
12887;DHT22;6511;49.746;6.094;2022-07-29T10:58:20;25.90;99.90
12887;DHT22;6511;49.746;6.094;2022-07-29T11:00:47;25.90;99.90
12887;DHT22;6511;49.746;6.094;2022-07-29T11:05:57;26.30;99.90
12887;DHT22;6511;49.746;6.094;2022-07-29T11:08:23;26.10;99.90
12887;DHT22;6511;49.746;6.094;2022-07-29T11:10:49;25.90;99.90
12887;DHT22;6511;49.746;6.094;2022-07-29T11:16:00;26.30;99.90
12887;DHT22;6511;49.746;6.094;2022-07-29T11:18:25;26.30;99.90
12887;DHT22;6511;49.746;6.094;2022-07-29T11:20:51;26.60;99.90
12887;DHT22;6511;49.746;6.094;2022-07-29T11:23:23;26.60;99.90
12887;DHT22;6511;49.746;6.094;2022-07-29T11:28:54;26.30;99.90
12887;DHT22;6511;49.746;6.094;2022-07-29T11:37:29;26.40;99.90
12887;DHT22;6511;49.746;6.094;2022-07-29T11:47:23;26.10;99.90
12887;DHT22;6511;49.746;6.094;2022-07-29T11:49:52;26.20;99.90
12887;DHT22;6511;49.746;6.094;2022-07-29T11:52:18;26.40;99.90
12887;DHT22;6511;49.746;6.094;2022-07-29T11:54:44;26.20;99.90
12887;DHT22;6511;49.746;6.094;2022-07-29T11:57:12;26.30;99.90
12887;DHT22;6511;49.746;6.094;2022-07-29T11:59:41;26.30;99.90
12887;DHT22;6511;49.746;6.094;2022-07-29T12:02:07;26.20;99.90
12887;DHT22;6511;49.746;6.094;2022-07-29T12:04:48;26.40;99.90
12887;DHT22;6511;49.746;6.094;2022-07-29T12:07:15;26.70;99.90
12887;DHT22;6511;49.746;6.094;2022-07-29T12:09:49;27.20;99.90
12887;DHT22;6511;49.746;6.094;2022-07-29T12:12:15;27.40;99.90
12887;DHT22;6511;49.746;6.094;2022-07-29T12:14:41;26.80;99.90
12887;DHT22;6511;49.746;6.094;2022-07-29T12:17:24;26.70;99.90
12887;DHT22;6511;49.746;6.094;2022-07-29T12:19:50;26.80;99.90
12887;DHT22;6511;49.746;6.094;2022-07-29T12:22:24;26.90;99.90
12887;DHT22;6511;49.746;6.094;2022-07-29T12:24:49;26.90;99.90
12887;DHT22;6511;49.746;6.094;2022-07-29T12:27:17;27.20;99.90
12887;DHT22;6511;49.746;6.094;2022-07-29T12:29:42;27.10;99.90
12887;DHT22;6511;49.746;6.094;2022-07-29T12:32:08;27.30;99.90
12887;DHT22;6511;49.746;6.094;2022-07-29T12:34:34;27.00;99.90
12887;DHT22;6511;49.746;6.094;2022-07-29T12:37:00;26.70;99.90
12887;DHT22;6511;49.746;6.094;2022-07-29T12:39:26;26.70;99.90
12887;DHT22;6511;49.746;6.094;2022-07-29T12:41:53;26.90;99.90
12887;DHT22;6511;49.746;6.094;2022-07-29T12:44:18;26.90;99.90
12887;DHT22;6511;49.746;6.094;2022-07-29T12:46:44;27.00;99.90
12887;DHT22;6511;49.746;6.094;2022-07-29T12:49:20;26.90;99.90
12887;DHT22;6511;49.746;6.094;2022-07-29T12:51:46;26.90;99.90
12887;DHT22;6511;49.746;6.094;2022-07-29T12:54:13;27.40;99.90
12887;DHT22;6511;49.746;6.094;2022-07-29T12:56:43;27.90;99.90
12887;DHT22;6511;49.746;6.094;2022-07-29T13:01:38;27.80;99.90
12887;DHT22;6511;49.746;6.094;2022-07-29T13:04:03;27.70;99.90
12887;DHT22;6511;49.746;6.094;2022-07-29T13:06:32;27.60;99.90
12887;DHT22;6511;49.746;6.094;2022-07-29T13:11:31;27.30;99.90
12887;DHT22;6511;49.746;6.094;2022-07-29T13:13:56;27.30;99.90
12887;DHT22;6511;49.746;6.094;2022-07-29T13:16:25;27.40;99.90
12887;DHT22;6511;49.746;6.094;2022-07-29T13:19:03;27.60;99.90
12887;DHT22;6511;49.746;6.094;2022-07-29T13:21:28;27.10;99.90
12887;DHT22;6511;49.746;6.094;2022-07-29T13:23:54;26.90;99.90
12887;DHT22;6511;49.746;6.094;2022-07-29T13:26:19;26.80;99.90
12887;DHT22;6511;49.746;6.094;2022-07-29T13:28:45;26.60;99.90
12887;DHT22;6511;49.746;6.094;2022-07-29T13:31:10;26.50;99.90
12887;DHT22;6511;49.746;6.094;2022-07-29T13:33:36;26.30;99.90
12887;DHT22;6511;49.746;6.094;2022-07-29T13:36:01;26.20;99.90
12887;DHT22;6511;49.746;6.094;2022-07-29T13:38:27;26.20;99.90
12887;DHT22;6511;49.746;6.094;2022-07-29T13:40:52;26.10;99.90
12887;DHT22;6511;49.746;6.094;2022-07-29T13:43:18;26.20;99.90
12887;DHT22;6511;49.746;6.094;2022-07-29T13:45:43;26.10;99.90
12887;DHT22;6511;49.746;6.094;2022-07-29T13:48:09;26.10;99.90
12887;DHT22;6511;49.746;6.094;2022-07-29T13:50:34;26.30;99.90
12887;DHT22;6511;49.746;6.094;2022-07-29T13:53:00;26.40;99.90
12887;DHT22;6511;49.746;6.094;2022-07-29T13:55:25;26.40;99.90
12887;DHT22;6511;49.746;6.094;2022-07-29T13:57:51;26.80;99.90
12887;DHT22;6511;49.746;6.094;2022-07-29T14:00:16;27.10;99.90
12887;DHT22;6511;49.746;6.094;2022-07-29T14:02:43;27.20;99.90
12887;DHT22;6511;49.746;6.094;2022-07-29T14:05:09;27.10;99.90
12887;DHT22;6511;49.746;6.094;2022-07-29T14:07:35;27.40;99.90
12887;DHT22;6511;49.746;6.094;2022-07-29T14:10:01;27.50;99.90
12887;DHT22;6511;49.746;6.094;2022-07-29T14:12:27;27.20;99.90
12887;DHT22;6511;49.746;6.094;2022-07-29T14:14:52;26.80;99.90
12887;DHT22;6511;49.746;6.094;2022-07-29T14:17:18;26.60;99.90
12887;DHT22;6511;49.746;6.094;2022-07-29T14:19:43;26.50;99.90
12887;DHT22;6511;49.746;6.094;2022-07-29T14:22:09;26.70;99.90
12887;DHT22;6511;49.746;6.094;2022-07-29T14:24:35;26.80;99.90
12887;DHT22;6511;49.746;6.094;2022-07-29T14:27:01;27.00;99.90
12887;DHT22;6511;49.746;6.094;2022-07-29T14:29:27;27.10;99.90
12887;DHT22;6511;49.746;6.094;2022-07-29T14:31:52;27.10;99.90
12887;DHT22;6511;49.746;6.094;2022-07-29T14:34:18;27.20;99.90
12887;DHT22;6511;49.746;6.094;2022-07-29T14:36:43;27.30;99.90
12887;DHT22;6511;49.746;6.094;2022-07-29T14:39:09;27.60;99.90
12887;DHT22;6511;49.746;6.094;2022-07-29T14:41:34;27.30;99.90
12887;DHT22;6511;49.746;6.094;2022-07-29T14:44:00;27.40;99.90
12887;DHT22;6511;49.746;6.094;2022-07-29T14:46:26;27.70;99.90
12887;DHT22;6511;49.746;6.094;2022-07-29T14:48:51;27.60;99.90
12887;DHT22;6511;49.746;6.094;2022-07-29T14:51:17;27.40;99.90
12887;DHT22;6511;49.746;6.094;2022-07-29T14:53:42;27.70;99.90
12887;DHT22;6511;49.746;6.094;2022-07-29T14:56:08;27.50;99.90
12887;DHT22;6511;49.746;6.094;2022-07-29T14:58:34;27.50;99.90
12887;DHT22;6511;49.746;6.094;2022-07-29T15:00:59;27.70;99.90
12887;DHT22;6511;49.746;6.094;2022-07-29T15:03:26;27.60;99.90
12887;DHT22;6511;49.746;6.094;2022-07-29T15:05:53;27.70;99.90
12887;DHT22;6511;49.746;6.094;2022-07-29T15:08:18;27.20;99.90
12887;DHT22;6511;49.746;6.094;2022-07-29T15:10:44;27.10;99.90
12887;DHT22;6511;49.746;6.094;2022-07-29T15:13:09;27.30;99.90
12887;DHT22;6511;49.746;6.094;2022-07-29T15:15:35;27.20;99.90
12887;DHT22;6511;49.746;6.094;2022-07-29T15:18:00;27.10;99.90
12887;DHT22;6511;49.746;6.094;2022-07-29T15:20:26;27.30;99.90
12887;DHT22;6511;49.746;6.094;2022-07-29T15:22:52;27.50;99.90
12887;DHT22;6511;49.746;6.094;2022-07-29T15:25:18;27.40;99.90
12887;DHT22;6511;49.746;6.094;2022-07-29T15:27:44;27.40;99.90
12887;DHT22;6511;49.746;6.094;2022-07-29T15:30:10;27.40;99.90
12887;DHT22;6511;49.746;6.094;2022-07-29T15:32:36;27.10;99.90
12887;DHT22;6511;49.746;6.094;2022-07-29T15:35:01;27.10;99.90
12887;DHT22;6511;49.746;6.094;2022-07-29T15:37:28;27.30;99.90
12887;DHT22;6511;49.746;6.094;2022-07-29T15:39:53;27.10;99.90
12887;DHT22;6511;49.746;6.094;2022-07-29T15:42:19;27.30;99.90
12887;DHT22;6511;49.746;6.094;2022-07-29T15:44:45;27.30;99.90
12887;DHT22;6511;49.746;6.094;2022-07-29T15:47:10;27.20;99.90
12887;DHT22;6511;49.746;6.094;2022-07-29T15:49:39;27.20;99.90
12887;DHT22;6511;49.746;6.094;2022-07-29T15:52:06;26.80;99.90
12887;DHT22;6511;49.746;6.094;2022-07-29T15:54:32;26.90;99.90
12887;DHT22;6511;49.746;6.094;2022-07-29T15:56:57;26.70;99.90
12887;DHT22;6511;49.746;6.094;2022-07-29T15:59:23;26.60;99.90
12887;DHT22;6511;49.746;6.094;2022-07-29T16:01:48;26.60;99.90
12887;DHT22;6511;49.746;6.094;2022-07-29T16:04:14;26.40;99.90
12887;DHT22;6511;49.746;6.094;2022-07-29T16:06:40;26.20;99.90
12887;DHT22;6511;49.746;6.094;2022-07-29T16:09:05;26.40;99.90
12887;DHT22;6511;49.746;6.094;2022-07-29T16:11:31;26.20;99.90
12887;DHT22;6511;49.746;6.094;2022-07-29T16:13:57;26.40;99.90
12887;DHT22;6511;49.746;6.094;2022-07-29T16:16:22;26.20;99.90
12887;DHT22;6511;49.746;6.094;2022-07-29T16:18:48;25.90;99.90
12887;DHT22;6511;49.746;6.094;2022-07-29T16:21:13;26.30;99.90
12887;DHT22;6511;49.746;6.094;2022-07-29T16:23:39;26.40;99.90
12887;DHT22;6511;49.746;6.094;2022-07-29T16:26:05;26.40;99.90
12887;DHT22;6511;49.746;6.094;2022-07-29T16:28:30;26.00;99.90
12887;DHT22;6511;49.746;6.094;2022-07-29T16:30:56;26.00;99.90
12887;DHT22;6511;49.746;6.094;2022-07-29T16:33:21;26.10;99.90